Tarlton, Ohio
Current Conditions -  °F | °C
As of 2:53 AM on Friday 19 Dec 2014 (Local Time) from KLHQ Reporting Station
Overcast Overcast  
Wind Chill: 29°   Ceiling: 2000
Heat Index: 29°   Visibility: 7mi
Dew Point: 23°   Wind: 3mph
Humidity: 78%   Direction: 290°WNW
Pressure: 30.22"   Gusts: NA
Location:  39.56°N, 82.78°W
Report Text: KLHQ 190753Z AUTO 29003KT 7SM OVC020 M02/M05 A3022 RMK AO2 SLP242 T10171050
Loading
Personal Weather Stations






























Interactive Weather Map New forecast layout! Learn more

10-Day Weather Forecast

Advertisements
Track Severe Weather on mobile